Time;durP1;ratioP1;P1;durP2;ratioP2;P2;SDS_P1;SDS_P2;PMS_P1;PMS_P2;Temp;Humidity;BMP_temperature;BMP_pressure;BME280_temperature;BME280_humidity;BME280_pressure;Samples;Min_cycle;Max_cycle;Signal;HPM_P1;HPM_P2
2022/04/19 00:00:56;;;;;;;18.73;11.82;;;;;;;-146.64;100.00;39964.09;5011363;28;20116;-78
2022/04/19 00:03:22;;;;;;;24.42;13.57;;;;;;;-146.64;100.00;39992.75;4997838;28;20038;-77
2022/04/19 00:05:47;;;;;;;16.90;12.32;;;;;;;-146.64;100.00;40152.41;5017600;28;20048;-77
2022/04/19 00:08:15;;;;;;;15.13;11.80;;;;;;;-146.64;100.00;40045.97;5035416;28;20037;-78
2022/04/19 00:10:41;;;;;;;17.33;12.73;;;;;;;-146.64;100.00;39970.25;4998933;28;20674;-77
2022/04/19 00:13:09;;;;;;;20.35;13.77;;;;;;;-146.64;100.00;39931.34;4998402;28;20125;-79
2022/04/19 00:15:35;;;;;;;15.80;12.77;;;;;;;-146.64;100.00;39888.38;5012217;28;20029;-77
2022/04/19 00:18:02;;;;;;;18.95;12.95;;;;;;;-146.64;100.00;39927.25;5016709;28;20453;-79
2022/04/19 00:20:28;;;;;;;19.80;13.30;;;;;;;-146.64;100.00;39968.19;4998696;28;20041;-79
2022/04/19 00:22:54;;;;;;;17.52;12.38;;;;;;;-146.64;100.00;39939.53;5000947;28;20041;-78
2022/04/19 00:25:20;;;;;;;16.83;13.95;;;;;;;-146.64;100.00;39976.38;5001232;28;20120;-78
2022/04/19 00:27:45;;;;;;;16.52;12.40;;;;;;;-146.64;100.00;40041.88;4998533;28;20033;-77
2022/04/19 00:30:12;;;;;;;14.80;12.40;;;;;;;-146.64;100.00;40029.59;5011876;28;20160;-77
2022/04/19 00:32:39;;;;;;;18.23;13.25;;;;;;;-146.64;100.00;40064.41;4997737;28;20144;-79
2022/04/19 00:35:06;;;;;;;16.55;13.43;;;;;;;-146.64;100.00;40154.47;5026628;28;20190;-78
2022/04/19 00:37:35;;;;;;;24.92;14.10;;;;;;;-146.64;100.00;40293.66;5016909;28;20037;-78
2022/04/19 00:40:05;;;;;;;17.00;13.63;;;;;;;-146.64;100.00;40336.66;5027229;28;20552;-76
2022/04/19 00:42:31;;;;;;;17.77;13.15;;;;;;;-146.64;100.00;40463.59;5013690;28;20047;-77
2022/04/19 00:44:58;;;;;;;26.87;13.67;;;;;;;-146.64;100.00;40537.28;4999508;28;20405;-76
2022/04/19 00:47:25;;;;;;;21.23;12.20;;;;;;;-146.64;100.00;40447.22;4997561;28;20038;-76
2022/04/19 00:49:50;;;;;;;19.88;12.70;;;;;;;-146.64;100.00;40541.38;5015760;28;20048;-77
2022/04/19 00:52:16;;;;;;;15.88;12.82;;;;;;;-146.64;100.00;41122.84;4997993;28;20038;-76
2022/04/19 00:54:44;;;;;;;17.88;14.05;;;;;;;-146.64;100.00;42830.84;5005864;28;20058;-76
2022/04/19 00:57:10;;;;;;;19.67;14.20;;;;;;;-146.64;100.00;42695.66;4998255;28;20034;-77
2022/04/19 00:59:36;;;;;;;20.25;13.40;;;;;;;-146.64;100.00;46843.72;5006853;28;20068;-76
2022/04/19 01:02:02;;;;;;;17.57;13.77;;;;;;;-146.64;100.00;47344.06;5002053;28;20148;-76
2022/04/19 01:04:30;;;;;;;17.25;13.73;;;;;;;-146.64;100.00;49694.97;4999654;28;20400;-76
2022/04/19 01:06:57;;;;;;;21.02;14.15;;;;;;;-146.64;100.00;49785.25;4999518;28;20046;-75
2022/04/19 01:09:22;;;;;;;;;;;;;;;-146.64;100.00;50199.78;4996756;28;20053;-76
2022/04/19 01:14:34;;;;;;;21.92;14.15;;;;;;;-146.64;100.00;53180.78;5014757;28;20396;-78
2022/04/19 01:17:00;;;;;;;17.95;14.15;;;;;;;-146.64;100.00;56620.34;4997186;28;20518;-77
2022/04/19 01:19:25;;;;;;;18.33;14.85;;;;;;;-146.64;100.00;58989.09;4984333;28;20045;-77
2022/04/19 01:21:54;;;;;;;15.60;13.05;;;;;;;-146.64;100.00;60569.03;4997861;28;20029;-77
2022/04/19 01:24:20;;;;;;;17.95;14.13;;;;;;;-146.64;100.00;64258.03;5007868;28;20052;-78
2022/04/19 01:26:45;;;;;;;20.05;14.10;;;;;;;-146.64;100.00;66631.31;4997242;28;20362;-78
2022/04/19 01:29:12;;;;;;;18.00;13.60;;;;;;;-146.64;100.00;62676.59;5019870;28;20040;-77
2022/04/19 01:31:39;;;;;;;18.65;14.07;;;;;;;-146.64;100.00;57409.78;5016737;28;20097;-77
2022/04/19 01:34:04;;;;;;;20.88;14.80;;;;;;;-146.64;100.00;62149.59;4992580;28;20044;-76
2022/04/19 01:36:30;;;;;;;20.92;14.50;;;;;;;-146.64;100.00;66367.56;5015133;28;20034;-77
2022/04/19 01:38:55;;;;;;;17.80;14.18;;;;;;;-146.64;100.00;75081.16;5016039;28;20136;-77
2022/04/19 01:41:20;;;;;;;23.73;14.75;;;;;;;-146.64;100.00;75874.25;4992551;28;20370;-77
2022/04/19 01:43:46;;;;;;;19.35;13.88;;;;;;;-146.64;100.00;70325.94;4991134;28;20372;-77
2022/04/19 01:46:12;;;;;;;15.85;13.20;;;;;;;-146.64;100.00;72438.66;5000144;28;20499;-76
2022/04/19 01:48:37;;;;;;;17.10;13.50;;;;;;;-146.64;100.00;72702.84;5006481;28;20121;-76
2022/04/19 01:51:02;;;;;;;18.95;13.55;;;;;;;-146.64;100.00;71910.38;5032856;28;20135;-76
2022/04/19 01:53:29;;;;;;;17.15;12.50;;;;;;;-146.64;100.00;72967.03;5023671;28;20044;-76
2022/04/19 01:55:55;;;;;;;;;;;;;;;-146.64;100.00;70854.00;5012798;28;20029;-77
2022/04/19 01:58:20;;;;;;;17.00;13.77;;;;;;;-146.64;100.00;76931.94;5003072;28;19925;-77
2022/04/19 02:00:46;;;;;;;17.38;13.70;;;;;;;-146.64;100.00;73231.22;5014731;28;20037;-77
2022/04/19 02:03:11;;;;;;;17.77;13.65;;;;;;;-146.64;100.00;75081.16;4982517;28;20156;-77
2022/04/19 02:05:36;;;;;;;17.52;13.30;;;;;;;-146.64;100.00;77725.41;5014108;28;20726;-77
2022/04/19 02:08:02;;;;;;;18.55;14.15;;;;;;;-146.64;100.00;76667.50;5010648;28;20396;-76
2022/04/19 02:10:27;;;;;;;18.80;14.43;;;;;;;-146.64;100.00;81165.53;5013625;28;20580;-77
2022/04/19 02:12:52;;;;;;;19.80;15.48;;;;;;;-146.64;100.00;81430.28;4996137;28;20030;-78
2022/04/19 02:15:18;;;;;;;18.85;15.20;;;;;;;-146.64;100.00;86463.78;4991900;28;20026;-78
2022/04/19 02:17:48;;;;;;;20.20;14.65;;;;;;;-146.64;100.00;83019.13;5013241;28;20033;-77
2022/04/19 02:20:16;;;;;;;20.17;14.90;;;;;;;-146.64;100.00;85138.56;5002454;28;20088;-77
2022/04/19 02:22:41;;;;;;;20.38;14.50;;;;;;;-146.64;100.00;84608.59;4980564;28;20044;-77
2022/04/19 02:25:09;;;;;;;18.15;14.23;;;;;;;-146.64;100.00;86198.72;5013470;28;20033;-77
2022/04/19 02:27:34;;;;;;;;;;;;;;;-146.64;100.00;86463.78;5013126;28;20128;-77
2022/04/19 02:30:04;;;;;;;20.55;14.57;;;;;;;-146.64;100.00;89115.53;5011506;28;20421;-77
2022/04/19 02:32:31;;;;;;;18.77;13.88;;;;;;;-146.64;100.00;87524.28;5013297;28;20496;-77
2022/04/19 02:34:57;;;;;;;20.38;15.35;;;;;;;-146.64;100.00;85403.56;5017229;28;20042;-78
2022/04/19 02:37:23;;;;;;;21.55;14.63;;;;;;;-146.64;100.00;87524.28;4996313;28;20061;-77
2022/04/19 02:39:49;;;;;;;20.98;14.52;;;;;;;-146.64;100.00;93361.97;5015518;28;20064;-77
2022/04/19 02:42:14;;;;;;;19.90;15.48;;;;;;;-146.64;100.00;92299.94;4993901;28;20502;-77
2022/04/19 02:44:40;;;;;;;19.50;15.38;;;;;;;-146.64;100.00;93627.50;5011212;28;20060;-76
2022/04/19 02:47:05;;;;;;;18.25;14.38;;;;;;;-146.64;100.00;91769.03;4998248;28;20682;-77
2022/04/19 02:49:31;;;;;;;20.77;14.88;;;;;;;-146.64;100.00;89911.41;5008552;28;20026;-77
2022/04/19 02:51:56;;;;;;;19.00;13.88;;;;;;;-146.64;100.00;90176.72;5006912;28;20030;-76
2022/04/19 02:54:23;;;;;;;21.17;14.68;;;;;;;-146.64;100.00;90707.41;4986393;28;20136;-76
2022/04/19 02:56:49;;;;;;;20.35;14.77;;;;;;;-146.64;100.00;89646.09;5018481;28;20496;-77
2022/04/19 02:59:14;;;;;;;19.75;14.25;;;;;;;-146.64;100.00;87524.28;5011841;28;20037;-77
2022/04/19 03:01:39;;;;;;;20.52;14.88;;;;;;;-146.64;100.00;90707.41;4999082;28;20033;-78
2022/04/19 03:04:05;;;;;;;18.38;14.43;;;;;;;-146.64;100.00;91238.19;4996135;28;20042;-76
2022/04/19 03:06:31;;;;;;;22.70;15.32;;;;;;;-146.64;100.00;90707.41;4999436;28;20032;-77
2022/04/19 03:08:56;;;;;;;17.95;14.18;;;;;;;-146.64;100.00;89646.09;5029697;28;20060;-78
2022/04/19 03:11:21;;;;;;;22.65;15.50;;;;;;;-146.64;100.00;89115.53;5015117;28;20028;-77
2022/04/19 03:13:48;;;;;;;23.58;16.98;;;;;;;-146.64;100.00;90972.78;5016742;28;20022;-77
2022/04/19 03:16:13;;;;;;;25.15;15.80;;;;;;;-146.64;100.00;92565.41;4994555;28;20511;-77
2022/04/19 03:18:42;;;;;;;19.45;14.10;;;;;;;-146.64;100.00;87524.28;5000431;28;20136;-76
2022/04/19 03:21:09;;;;;;;22.30;15.40;;;;;;;-146.64;100.00;88850.28;4996645;28;20037;-77
2022/04/19 03:29:02;;;;;;;21.90;15.25;;;;;;;-146.64;100.00;90176.72;5010487;28;20056;-76
2022/04/19 03:31:28;;;;;;;21.90;14.77;;;;;;;-146.64;100.00;89115.53;5013450;28;20029;-78
2022/04/19 03:33:53;;;;;;;21.17;15.23;;;;;;;-146.64;100.00;91503.59;5021065;28;20080;-77
2022/04/19 03:36:22;;;;;;;18.58;14.98;;;;;;;-146.64;100.00;92299.94;5022121;28;20037;-77
2022/04/19 03:38:47;;;;;;;19.25;15.18;;;;;;;-146.64;100.00;90972.78;5030098;28;20025;-77
2022/04/19 03:41:13;;;;;;;20.90;15.95;;;;;;;-146.64;100.00;89646.09;4997429;28;20096;-77
2022/04/19 03:43:38;;;;;;;20.02;15.10;;;;;;;-146.64;100.00;92299.94;4986646;28;20033;-77
2022/04/19 03:46:04;;;;;;;22.75;15.50;;;;;;;-146.64;100.00;92565.41;5010763;28;20032;-77
2022/04/19 03:48:30;;;;;;;20.53;15.73;;;;;;;-146.64;100.00;94689.88;5000525;28;20493;-77
2022/04/19 03:50:55;;;;;;;19.67;14.82;;;;;;;-146.64;100.00;93627.50;5010121;28;20034;-77
2022/04/19 03:53:20;;;;;;;20.70;14.70;;;;;;;-146.64;100.00;89380.81;5008673;28;20083;-77
2022/04/19 03:55:46;;;;;;;20.25;15.73;;;;;;;-146.64;100.00;96283.97;4986873;28;20042;-78
2022/04/19 03:58:11;;;;;;;25.42;16.33;;;;;;;-146.64;100.00;98410.41;4999287;28;20018;-77
2022/04/19 04:00:46;;;;;;;21.02;15.27;;;;;;;-146.64;100.00;95752.53;5014160;28;20036;-77
2022/04/19 04:03:12;;;;;;;22.10;15.32;;;;;;;-146.64;100.00;98942.19;4983510;28;20036;-77
2022/04/19 04:05:38;;;;;;;23.98;15.52;;;;;;;-146.64;100.00;99474.03;4995382;28;20029;-78
2022/04/19 04:08:04;;;;;;;20.50;15.70;;;;;;;-146.64;100.00;101070.00;4997643;28;20061;-77
2022/04/19 04:10:29;;;;;;;22.55;16.60;;;;;;;-146.64;100.00;100271.94;4997468;28;20274;-77
2022/04/19 04:12:55;;;;;;;20.13;16.42;;;;;;;-146.64;100.00;100271.94;4991919;28;20066;-77
2022/04/19 04:15:20;;;;;;;23.15;17.15;;;;;;;-146.64;100.00;101070.00;4996132;28;20060;-78
2022/04/19 04:17:45;;;;;;;23.02;16.38;;;;;;;-146.64;100.00;102134.31;5027211;28;20022;-79
2022/04/19 04:20:11;;;;;;;23.08;16.05;;;;;;;-146.64;100.00;102134.31;5014162;28;20025;-77
2022/04/19 04:22:36;;;;;;;21.98;16.27;;;;;;;-146.64;100.00;100005.94;5014650;28;20021;-77
2022/04/19 04:25:02;;;;;;;22.15;15.55;;;;;;;-146.64;100.00;97878.69;5013062;28;20030;-78
2022/04/19 04:27:30;;;;;;;21.05;16.48;;;;;;;-146.64;100.00;97347.03;5013994;28;20057;-77
2022/04/19 04:29:55;;;;;;;21.55;15.80;;;;;;;-146.64;100.00;100271.94;5011963;28;20039;-78
2022/04/19 04:32:20;;;;;;;31.75;17.13;;;;;;;-146.64;100.00;100005.94;5023645;28;20540;-78
2022/04/19 04:34:45;;;;;;;24.63;16.45;;;;;;;-146.64;100.00;102932.75;4995585;28;20341;-77
2022/04/19 04:37:11;;;;;;;25.58;16.83;;;;;;;-146.64;100.00;102666.59;5009639;28;20049;-79
2022/04/19 04:39:37;;;;;;;24.45;15.52;;;;;;;-146.64;100.00;100803.97;5003413;28;20122;-78
2022/04/19 04:42:06;;;;;;;24.13;16.92;;;;;;;-146.64;100.00;101602.13;5014140;28;20169;-76
2022/04/19 04:44:31;;;;;;;23.38;16.17;;;;;;;-146.64;100.00;98676.28;5008066;28;20025;-78
2022/04/19 04:49:40;;;;;;;22.00;15.63;;;;;;;-146.64;100.00;98144.53;5000257;28;20044;-79
2022/04/19 04:52:08;;;;;;;22.23;16.63;;;;;;;-146.64;100.00;97878.69;5004119;28;20037;-78
2022/04/19 04:54:35;;;;;;;21.63;15.80;;;;;;;-146.64;100.00;97878.69;5006078;28;20370;-77
2022/04/19 04:57:01;;;;;;;23.10;16.23;;;;;;;-146.64;100.00;100271.94;5017208;28;20041;-77
2022/04/19 04:59:27;;;;;;;24.30;16.00;;;;;;;-146.64;100.00;99474.03;5022250;28;20088;-78
2022/04/19 05:01:52;;;;;;;25.05;16.70;;;;;;;-146.64;100.00;98144.53;5032348;28;20045;-78
2022/04/19 05:04:18;;;;;;;26.95;16.65;;;;;;;-146.64;100.00;98410.41;4997154;28;20117;-77
2022/04/19 05:06:43;;;;;;;21.30;16.20;;;;;;;-146.64;100.00;98410.41;4997667;28;20104;-78
2022/04/19 05:09:09;;;;;;;23.80;16.90;;;;;;;-146.64;100.00;97347.03;4991580;28;20030;-78
2022/04/19 05:11:34;;;;;;;22.95;16.35;;;;;;;-146.64;100.00;97878.69;4993254;28;20037;-78
2022/04/19 05:13:59;;;;;;;25.55;16.92;;;;;;;-146.64;100.00;97612.84;5003009;28;20029;-77
2022/04/19 05:16:26;;;;;;;24.95;15.50;;;;;;;-146.64;100.00;96018.25;5017359;28;20033;-77
2022/04/19 05:18:51;;;;;;;24.50;16.42;;;;;;;-146.64;100.00;95221.19;4999472;28;21534;-79
2022/04/19 05:21:17;;;;;;;23.48;15.05;;;;;;;-146.64;100.00;94955.53;4998925;28;20049;-77
2022/04/19 05:23:42;;;;;;;25.92;15.85;;;;;;;-146.64;100.00;95752.53;4998090;28;20033;-77
2022/04/19 05:26:08;;;;;;;24.30;16.30;;;;;;;-146.64;100.00;94158.66;4997588;28;20029;-77
2022/04/19 05:28:33;;;;;;;23.08;16.35;;;;;;;-146.64;100.00;97347.03;5004877;28;20037;-78
2022/04/19 05:31:00;;;;;;;20.20;16.08;;;;;;;-146.64;100.00;94955.53;5006250;28;20605;-77
2022/04/19 05:33:25;;;;;;;25.85;15.85;;;;;;;-146.64;100.00;92830.91;5012866;28;20080;-79
2022/04/19 05:35:51;;;;;;;23.13;16.27;;;;;;;-146.64;100.00;93893.06;5029031;28;20029;-77
2022/04/19 05:38:17;;;;;;;25.65;15.25;;;;;;;-146.64;100.00;93096.44;4988619;28;20036;-78
2022/04/19 05:40:42;;;;;;;24.63;16.67;;;;;;;-146.64;100.00;92034.47;5023076;28;20164;-79
2022/04/19 05:43:08;;;;;;;25.67;15.27;;;;;;;-146.64;100.00;92299.94;5024300;28;20088;-78
2022/04/19 05:45:33;;;;;;;30.58;17.42;;;;;;;-146.64;100.00;90176.72;5011066;28;20029;-79
2022/04/19 05:48:00;;;;;;;21.70;16.52;;;;;;;-146.64;100.00;90176.72;4996698;28;20440;-78
2022/04/19 05:50:26;;;;;;;24.52;16.58;;;;;;;-146.64;100.00;88054.63;5014480;28;20410;-77
2022/04/19 05:52:51;;;;;;;27.65;16.83;;;;;;;-146.64;100.00;85933.66;5013770;28;20038;-78
2022/04/19 05:55:17;;;;;;;22.45;17.80;;;;;;;-146.64;100.00;83019.13;5014315;28;20026;-78
2022/04/19 05:57:42;;;;;;;21.17;16.40;;;;;;;-146.64;100.00;78783.59;5005706;28;20121;-78
2022/04/19 06:00:08;;;;;;;27.30;17.75;;;;;;;-146.64;100.00;75874.25;5003386;28;20029;-78
2022/04/19 06:05:17;;;;;;;24.50;16.00;;;;;;;-146.64;100.00;69269.97;5011974;28;20373;-78
2022/04/19 06:07:47;;;;;;;28.40;15.73;;;;;;;-146.64;100.00;61359.25;5006333;28;20025;-77
2022/04/19 06:10:14;;;;;;;26.83;14.90;;;;;;;-146.64;100.00;58199.34;5010707;28;20033;-78
2022/04/19 06:12:40;;;;;;;23.80;15.30;;;;;;;-146.64;100.00;56094.16;5021275;28;20124;-79
2022/04/19 06:15:05;;;;;;;24.58;15.48;;;;;;;-146.64;100.00;52784.41;5003568;28;20470;-78
2022/04/19 06:17:32;;;;;;;19.92;15.05;;;;;;;-146.64;100.00;46105.59;4986500;28;20159;-78
2022/04/19 06:19:59;;;;;;;22.90;15.10;;;;;;;-146.64;100.00;45529.56;5013363;28;20139;-79
2022/04/19 06:22:25;;;;;;;24.23;14.75;;;;;;;-146.64;100.00;42417.09;5001489;28;20033;-79
2022/04/19 06:24:50;;;;;;;20.15;14.15;;;;;;;-146.64;100.00;39116.75;5013956;28;20056;-78
2022/04/19 06:27:16;;;;;;;26.92;14.77;;;;;;;-146.64;100.00;39108.56;5012408;28;20049;-78
2022/04/19 06:29:41;;;;;;;20.27;14.50;;;;;;;-146.64;100.00;39100.38;4982634;28;20408;-78
2022/04/19 06:32:08;;;;;;;20.77;14.73;;;;;;;-146.64;100.00;39116.75;4995137;28;20034;-77
2022/04/19 06:34:34;;;;;;;24.85;13.50;;;;;;;-146.64;100.00;39047.19;5018803;28;20033;-78
2022/04/19 06:37:00;;;;;;;24.85;14.57;;;;;;;-146.64;100.00;39002.16;4988719;28;20146;-78
2022/04/19 06:39:27;;;;;;;20.45;14.23;;;;;;;-146.64;100.00;39018.53;5000716;28;20061;-79
2022/04/19 06:41:54;;;;;;;26.08;14.85;;;;;;;-146.64;100.00;38985.78;5011218;28;20187;-77
2022/04/19 06:44:21;;;;;;;;;;;;;;;-146.64;100.00;38985.78;5032746;28;20108;-78
2022/04/19 06:46:47;;;;;;;23.35;12.77;;;;;;;-146.64;100.00;38969.41;5009582;28;19921;-78
2022/04/19 06:49:13;;;;;;;25.25;13.70;;;;;;;-146.64;100.00;38948.94;5011393;28;20069;-77
2022/04/19 06:51:39;;;;;;;18.95;13.10;;;;;;;-146.64;100.00;38924.41;4992537;28;20041;-77
2022/04/19 06:54:06;;;;;;;26.77;13.50;;;;;;;-146.64;100.00;38846.63;5007988;28;20029;-78
2022/04/19 06:56:31;;;;;;;;;;;;;;;-146.64;100.00;38783.19;5014922;28;20033;-77
2022/04/19 06:59:00;;;;;;;26.50;14.20;;;;;;;-146.64;96.68;38719.75;5031259;28;19967;-76
2022/04/19 07:01:29;;;;;;;19.80;13.73;;;;;;;-146.64;94.10;38756.59;4999004;28;20033;-76
2022/04/19 07:03:54;;;;;;;19.92;13.18;;;;;;;-146.64;92.15;38732.03;5003159;28;20033;-77
2022/04/19 07:06:22;;;;;;;19.43;12.77;;;;;;;-146.64;88.20;38695.19;5007673;28;20089;-80
2022/04/19 07:08:51;;;;;;;18.50;12.13;;;;;;;-146.64;84.52;38625.63;5014965;28;20030;-79
2022/04/19 07:11:16;;;;;;;17.30;12.10;;;;;;;-146.64;82.09;38541.75;4997266;28;20056;-77
2022/04/19 07:13:45;;;;;;;17.90;12.20;;;;;;;-146.64;75.04;38504.91;4996683;28;20042;-77
2022/04/19 07:16:10;;;;;;;16.23;12.15;;;;;;;-146.64;72.96;38449.66;5006255;28;20037;-78
2022/04/19 07:18:37;;;;;;;23.60;13.33;;;;;;;-146.64;72.04;38421.00;5008560;28;20048;-76
2022/04/19 07:26:40;;;;;;;18.17;11.52;;;;;;;-146.64;66.51;38343.25;4995192;28;20102;-78
2022/04/19 07:29:12;;;;;;;20.23;11.88;;;;;;;-146.64;65.35;38359.63;5002288;28;20034;-78
2022/04/19 07:31:42;;;;;;;19.67;11.52;;;;;;;-146.64;62.22;38371.91;4998087;28;20080;-78
2022/04/19 07:34:08;;;;;;;16.20;11.30;;;;;;;-146.64;61.86;38412.81;5016144;28;20120;-77
2022/04/19 07:36:35;;;;;;;19.43;13.17;;;;;;;-146.64;61.24;38351.44;5003276;28;20076;-79
2022/04/19 07:39:04;;;;;;;17.77;11.57;;;;;;;-146.64;59.30;38355.53;4999536;28;20236;-79
2022/04/19 07:41:30;;;;;;;20.15;12.10;;;;;;;-146.64;59.46;38341.22;5018355;28;20053;-78
2022/04/19 07:43:55;;;;;;;18.10;11.05;;;;;;;-146.64;57.73;38388.28;4987647;28;20042;-78
2022/04/19 07:46:21;;;;;;;15.63;10.23;;;;;;;-146.64;55.48;38400.56;4992466;28;20030;-78
2022/04/19 07:48:51;;;;;;;18.30;11.33;;;;;;;-146.64;56.44;38441.47;5022718;28;20037;-77
2022/04/19 07:51:17;;;;;;;15.45;10.50;;;;;;;-146.64;56.94;38380.09;5020526;28;20036;-77
2022/04/19 07:53:43;;;;;;;14.97;10.40;;;;;;;-146.64;56.47;38376.00;4998390;28;20037;-78
2022/04/19 07:56:08;;;;;;;12.87;9.00;;;;;;;-146.64;55.08;38386.22;5004521;28;20062;-79
2022/04/19 07:58:35;;;;;;;13.55;9.30;;;;;;;-146.64;54.45;38363.72;4998547;28;20046;-79
2022/04/19 08:01:00;;;;;;;13.83;8.57;;;;;;;-146.64;56.52;38333.03;4998355;28;20725;-78
2022/04/19 08:03:26;;;;;;;15.53;8.70;;;;;;;-146.64;54.81;38388.28;5008744;28;20072;-79
2022/04/19 08:05:53;;;;;;;12.87;8.83;;;;;;;-146.64;55.09;38382.13;5004878;28;20493;-78
2022/04/19 08:08:21;;;;;;;12.43;9.05;;;;;;;-146.64;54.84;38351.44;5011382;28;20025;-79
2022/04/19 08:10:46;;;;;;;13.57;9.13;;;;;;;-146.64;57.01;38408.75;5004029;28;20034;-78
2022/04/19 08:13:12;;;;;;;15.53;9.60;;;;;;;-146.64;57.11;38388.28;5021108;28;20038;-81
2022/04/19 08:15:37;;;;;;;12.70;9.27;;;;;;;-146.64;57.03;38386.22;5011275;28;20025;-79
2022/04/19 08:18:03;;;;;;;13.20;8.03;;;;;;;-146.64;55.93;38361.69;5032474;28;20022;-78
2022/04/19 08:20:28;;;;;;;12.77;9.40;;;;;;;-146.64;56.08;38396.47;5021007;28;20026;-79
2022/04/19 08:22:54;;;;;;;11.93;8.53;;;;;;;-146.64;58.49;38371.91;5011793;28;20044;-78
2022/04/19 08:25:19;;;;;;;11.03;8.60;;;;;;;-146.64;54.74;38400.56;5006919;28;20026;-77
2022/04/19 08:27:48;;;;;;;13.27;8.73;;;;;;;-146.64;58.95;38390.31;5029954;28;20427;-79
2022/04/19 08:30:15;;;;;;;10.02;8.45;;;;;;;-146.64;56.25;38388.28;5005087;28;20030;-79
2022/04/19 08:32:40;;;;;;;12.77;8.38;;;;;;;-146.64;58.72;38437.38;5019833;28;20036;-78
2022/04/19 08:35:07;;;;;;;12.77;8.80;;;;;;;-146.64;59.41;38410.78;5005038;28;20018;-79
2022/04/19 08:37:34;;;;;;;;;;;;;;;-146.64;58.61;38455.78;4983507;28;20025;-80
2022/04/19 08:40:10;;;;;;;17.63;8.30;;;;;;;-146.64;56.58;38486.50;4996873;28;19921;-80
2022/04/19 08:42:38;;;;;;;13.68;8.30;;;;;;;-146.64;57.91;38461.94;4994805;28;20048;-80
2022/04/19 08:45:09;;;;;;;13.90;8.70;;;;;;;-146.64;59.02;38416.91;5019386;28;20485;-78
2022/04/19 08:47:39;;;;;;;16.55;9.10;;;;;;;-146.64;56.97;38376.00;5011447;28;20101;-79
2022/04/19 08:50:08;;;;;;;14.90;9.05;;;;;;;-146.64;57.75;38328.94;5013102;28;20101;-80
2022/04/19 08:52:34;;;;;;;12.60;7.95;;;;;;;-146.64;55.09;38302.34;5003246;28;20121;-77
2022/04/19 08:57:45;;;;;;;12.30;7.15;;;;;;;-146.64;54.06;38228.69;5018258;28;20092;-77
2022/04/19 09:00:11;;;;;;;9.65;6.95;;;;;;;-146.64;52.94;38232.78;5032899;28;20037;-77
2022/04/19 09:02:40;;;;;;;7.90;6.57;;;;;;;-146.64;50.44;38277.78;5000409;28;20125;-77
2022/04/19 09:05:22;;;;;;;11.45;7.50;;;;;;;-146.64;50.56;38228.69;4996515;28;20034;-79
2022/04/19 09:07:49;;;;;;;15.88;6.75;;;;;;;-146.64;50.25;38249.13;5032671;28;20018;-79
2022/04/19 09:10:25;;;;;;;10.73;6.47;;;;;;;-146.64;50.70;38132.53;4995986;28;20046;-78
2022/04/19 09:13:02;;;;;;;12.13;6.65;;;;;;;-146.64;49.83;38134.56;5017378;28;20034;-79
2022/04/19 09:15:41;;;;;;;11.32;6.70;;;;;;;-146.64;49.39;38155.03;5017704;28;20051;-78
2022/04/19 09:18:30;;;;;;;12.43;6.13;;;;;;;-146.64;47.92;38130.47;5021979;28;20018;-77
2022/04/19 09:20:57;;;;;;;10.73;6.40;;;;;;;-146.64;47.23;38054.78;5030519;28;20104;-79
2022/04/19 09:23:23;;;;;;;11.10;6.50;;;;;;;-146.64;45.67;38028.19;5007528;28;20006;-78
2022/04/19 09:25:57;;;;;;;8.90;6.32;;;;;;;-146.64;46.14;37958.63;5012946;28;20026;-78
2022/04/19 09:28:24;;;;;;;8.00;5.30;;;;;;;-146.64;44.05;37954.53;5018966;28;20168;-79
2022/04/19 09:30:58;;;;;;;9.90;5.55;;;;;;;-146.64;42.89;37925.88;5023975;28;20056;-80
2022/04/19 09:33:26;;;;;;;14.63;6.05;;;;;;;-146.64;42.10;37925.88;5015032;28;20038;-79
2022/04/19 09:35:59;;;;;;;10.15;6.22;;;;;;;-146.64;41.11;37899.28;5014831;28;20030;-79
2022/04/19 09:38:42;;;;;;;11.18;6.07;;;;;;;-146.64;40.54;37901.31;5016533;28;20014;-79
2022/04/19 09:41:09;;;;;;;12.90;6.45;;;;;;;-146.64;41.60;37889.06;5002086;28;20097;-79
2022/04/19 09:43:35;;;;;;;11.45;6.22;;;;;;;-146.64;41.88;37944.28;5014274;28;20022;-77
2022/04/19 09:46:03;;;;;;;11.97;6.60;;;;;;;-146.64;42.09;38011.81;5022995;28;20038;-80
2022/04/19 09:48:30;;;;;;;12.30;6.55;;;;;;;-146.64;42.62;38036.34;5038511;28;20010;-79
2022/04/19 09:51:09;;;;;;;7.47;5.53;;;;;;;-146.64;42.86;38081.38;5009841;28;20033;-79
2022/04/19 09:53:43;;;;;;;14.25;5.40;;;;;;;-146.64;42.25;38007.72;5046896;28;20025;-79
2022/04/19 09:56:10;;;;;;;10.00;6.28;;;;;;;-146.64;40.80;38003.63;5051269;28;20112;-80
2022/04/19 09:58:37;;;;;;;11.00;5.97;;;;;;;-146.64;40.82;37835.88;5023230;28;20034;-79
2022/04/19 10:01:03;;;;;;;11.60;6.07;;;;;;;-146.64;40.25;37801.09;5020099;28;20037;-80
2022/04/19 10:08:58;;;;;;;13.10;6.13;;;;;;;-146.64;39.01;37897.25;5028978;28;20172;-78
2022/04/19 10:11:25;;;;;;;7.88;5.32;;;;;;;-146.64;39.21;37878.81;5031129;28;20057;-78
2022/04/19 10:13:51;;;;;;;12.65;6.03;;;;;;;-146.64;38.62;37815.41;5004802;28;20030;-79
2022/04/19 10:16:16;;;;;;;7.87;4.93;;;;;;;-146.64;37.69;37778.59;5033486;28;20550;-81
2022/04/19 10:18:44;;;;;;;10.47;5.20;;;;;;;-146.64;38.40;37831.78;5017424;28;20472;-80
2022/04/19 10:21:13;;;;;;;14.70;6.07;;;;;;;-146.64;37.59;37880.88;5023436;28;20532;-78
2022/04/19 10:23:40;;;;;;;8.88;5.82;;;;;;;-146.64;37.31;37805.19;5030736;28;20030;-80
2022/04/19 10:26:22;;;;;;;10.68;5.45;;;;;;;-146.64;37.69;37903.38;5046954;28;20046;-80
2022/04/19 10:28:51;;;;;;;11.77;5.47;;;;;;;-146.64;37.61;37827.69;5015972;28;20078;-80
2022/04/19 10:31:28;;;;;;;7.80;5.38;;;;;;;-146.64;37.92;37762.22;5026388;28;20105;-80
2022/04/19 10:33:54;;;;;;;10.05;5.47;;;;;;;-146.64;37.65;37741.75;5003985;28;20061;-78
2022/04/19 10:36:37;;;;;;;9.57;5.13;;;;;;;-146.64;37.98;37635.38;4981019;28;20034;-79
2022/04/19 10:39:11;;;;;;;7.63;4.93;;;;;;;-146.64;36.10;37735.63;5022349;28;20022;-80
2022/04/19 10:42:05;;;;;;;10.10;5.50;;;;;;;-146.64;36.64;37717.22;5018707;28;20022;-80
2022/04/19 10:44:43;;;;;;;7.15;5.13;;;;;;;-146.64;36.45;37664.00;5033958;28;20033;-80
2022/04/19 10:47:14;;;;;;;9.85;5.40;;;;;;;-146.64;36.46;37682.44;5028089;28;20037;-80
2022/04/19 10:49:56;;;;;;;9.90;5.72;;;;;;;-146.64;35.51;37674.25;5025963;28;20133;-78
2022/04/19 10:52:44;;;;;;;9.23;5.90;;;;;;;-146.64;35.46;37688.56;5026664;28;20026;-80
2022/04/19 10:55:11;;;;;;;9.38;6.45;;;;;;;-146.64;35.30;37594.47;5018466;28;20119;-81
2022/04/19 11:00:49;;;;;;;12.45;6.30;;;;;;;-146.64;35.93;37443.09;5012173;28;20083;-80
2022/04/19 11:03:17;;;;;;;9.65;5.68;;;;;;;-146.64;35.22;37553.53;5024629;28;20680;-80
2022/04/19 11:05:50;;;;;;;16.17;6.82;;;;;;;-146.64;34.44;37635.38;5004189;28;20054;-80
2022/04/19 11:08:21;;;;;;;11.25;6.57;;;;;;;-146.64;35.17;37594.47;4995643;28;20562;-81
2022/04/19 11:10:48;;;;;;;12.68;6.18;;;;;;;-146.64;34.75;37569.91;5027430;28;20097;-81
2022/04/19 11:13:13;;;;;;;10.00;5.78;;;;;;;-146.64;35.19;37459.44;5020639;28;21357;-81
2022/04/19 11:15:39;;;;;;;10.07;6.40;;;;;;;-146.64;33.69;37471.72;5019867;28;20234;-80
2022/04/19 11:18:27;;;;;;;11.17;6.07;;;;;;;-146.64;34.82;37545.38;5031772;28;20033;-81
2022/04/19 11:20:54;;;;;;;10.98;5.75;;;;;;;-146.64;34.73;37451.25;5007450;28;20083;-80
2022/04/19 11:23:21;;;;;;;10.43;6.28;;;;;;;-146.64;33.89;37492.19;5014024;28;20026;-81
2022/04/19 11:25:48;;;;;;;10.25;5.82;;;;;;;-146.64;33.66;37627.19;5018649;28;20033;-80
2022/04/19 11:28:20;;;;;;;12.07;5.75;;;;;;;-146.64;33.88;37553.53;5004633;28;20018;-80
2022/04/19 11:30:57;;;;;;;9.75;6.00;;;;;;;-146.64;32.94;37522.88;5028932;28;20033;-80
2022/04/19 11:33:24;;;;;;;11.88;5.53;;;;;;;-146.64;33.88;37457.41;5032009;28;20052;-80